createdAt,value
2019-04-26T00:04:50.417Z,68.06
2019-04-26T00:09:57.671Z,68.40
2019-04-26T00:15:20.119Z,68.79
2019-04-26T00:20:25.713Z,69.58
2019-04-26T00:25:31.025Z,69.02
2019-04-26T00:30:37.487Z,69.36
2019-04-26T00:35:47.689Z,69.50
2019-04-26T00:40:51.973Z,69.81
2019-04-26T00:45:59.233Z,69.39
2019-04-26T00:51:06.562Z,69.86
2019-04-26T00:56:14.560Z,69.87
2019-04-26T01:01:22.765Z,69.48
2019-04-26T01:06:30.624Z,69.08
2019-04-26T01:11:36.008Z,69.89
2019-04-26T01:16:41.294Z,69.69
2019-04-26T01:22:08.541Z,70.62
2019-04-26T01:27:33.903Z,70.19
2019-04-26T01:32:42.696Z,70.54
2019-04-26T01:37:50.622Z,69.35
2019-04-26T01:43:04.485Z,69.31
2019-04-26T01:48:37.029Z,69.02
2019-04-26T01:53:43.538Z,69.48
2019-04-26T01:58:50.161Z,69.77
2019-04-26T02:03:55.602Z,69.72
2019-04-26T02:09:01.022Z,69.33
2019-04-26T02:14:08.396Z,70.06
2019-04-26T02:19:13.740Z,69.82
2019-04-26T02:24:32.128Z,70.17
2019-04-26T02:29:37.887Z,70.40
2019-04-26T02:34:43.140Z,70.33
2019-04-26T02:39:48.899Z,70.24
2019-04-26T02:45:36.231Z,71.12
2019-04-26T02:50:47.962Z,70.94
2019-04-26T02:56:24.883Z,71.01
2019-04-26T03:01:32.323Z,70.96
2019-04-26T03:06:42.767Z,71.80
2019-04-26T03:11:51.788Z,70.35
2019-04-26T03:17:17.963Z,72.15
2019-04-26T03:23:19.538Z,70.72
2019-04-26T03:28:40.022Z,71.06
2019-04-26T03:34:30.213Z,70.81
2019-04-26T03:39:54.308Z,71.65
2019-04-26T03:45:24.958Z,71.02
2019-04-26T03:50:39.555Z,71.19
2019-04-26T03:56:06.721Z,71.78
2019-04-26T04:01:13.294Z,71.40
2019-04-26T04:06:25.695Z,72.82
2019-04-26T04:11:39.935Z,73.00
2019-04-26T04:17:28.811Z,73.17
2019-04-26T04:22:41.096Z,74.22
2019-04-26T04:27:56.400Z,75.20
2019-04-26T04:33:33.104Z,76.84
2019-04-26T04:39:15.790Z,77.46
2019-04-26T04:45:05.937Z,77.94
2019-04-26T04:50:27.792Z,78.92
2019-04-26T04:55:59.810Z,77.79
2019-04-26T05:01:50.361Z,77.93
2019-04-26T05:07:19.988Z,79.30
2019-04-26T05:12:38.462Z,78.67
2019-04-26T05:18:13.429Z,78.91
2019-04-26T05:24:06.402Z,79.54
2019-04-26T05:29:34.657Z,79.90
2019-04-26T05:34:50.817Z,79.24
2019-04-26T05:40:38.807Z,80.51
2019-04-26T05:46:28.999Z,82.23
2019-04-26T05:52:13.717Z,81.27
2019-04-26T05:58:12.113Z,79.79
2019-04-26T06:04:09.220Z,79.39
2019-04-26T06:09:59.587Z,80.40
2019-04-26T06:15:30.905Z,80.16
2019-04-26T06:20:46.994Z,81.11
2019-04-26T06:26:49.233Z,81.20
2019-04-26T06:32:14.588Z,80.63
2019-04-26T06:37:35.624Z,80.69
2019-04-26T06:43:30.458Z,81.53
2019-04-26T06:49:03.417Z,80.35
2019-04-26T06:54:28.390Z,80.42
2019-04-26T07:00:06.671Z,79.94
2019-04-26T07:05:21.991Z,80.88
2019-04-26T07:11:00.553Z,79.86
2019-04-26T07:16:22.271Z,78.66
2019-04-26T07:21:54.022Z,78.07
2019-04-26T07:27:44.569Z,79.79
2019-04-26T07:33:18.933Z,77.63
2019-04-26T07:39:16.482Z,76.81
2019-04-26T07:44:32.410Z,77.00
2019-04-26T07:50:21.089Z,77.48
2019-04-26T07:55:40.443Z,77.74
2019-04-26T08:00:54.245Z,78.72
2019-04-26T08:06:16.017Z,78.55
2019-04-26T08:11:29.562Z,77.14
2019-04-26T08:16:49.773Z,78.47
2019-04-26T08:22:11.487Z,78.34
2019-04-26T08:27:23.221Z,77.94
2019-04-26T08:32:32.065Z,76.45
2019-04-26T08:37:53.542Z,77.98
2019-04-26T08:43:31.887Z,76.67
2019-04-26T08:48:48.848Z,77.00
2019-04-26T08:53:56.903Z,77.19
2019-04-26T08:59:07.580Z,77.16
2019-04-26T09:04:21.920Z,76.18
2019-04-26T09:09:32.283Z,75.61
2019-04-26T09:14:39.890Z,76.31
2019-04-26T09:19:45.709Z,77.09
2019-04-26T09:25:15.935Z,76.54
2019-04-26T09:30:49.288Z,75.34
2019-04-26T09:35:54.745Z,76.44
2019-04-26T09:41:00.619Z,77.02
2019-04-26T09:46:16.447Z,77.57
2019-04-26T09:51:22.464Z,77.24
2019-04-26T09:56:27.936Z,75.33
2019-04-26T10:01:33.903Z,75.56
2019-04-26T10:06:39.174Z,74.77
2019-04-26T10:11:49.309Z,76.12
2019-04-26T10:17:15.579Z,74.86
2019-04-26T10:22:19.011Z,74.71
2019-04-26T10:27:24.355Z,73.95
2019-04-26T10:37:39.508Z,72.62
2019-04-26T10:42:42.359Z,73.01
2019-04-26T10:47:47.717Z,71.89
2019-04-26T10:52:59.766Z,69.98
2019-04-26T10:58:13.363Z,71.19
2019-04-26T11:03:19.282Z,70.31
2019-04-26T11:08:24.617Z,68.93
2019-04-26T11:13:31.109Z,69.83
2019-04-26T11:18:36.648Z,68.36
2019-04-26T11:23:45.477Z,68.89
2019-04-26T11:28:51.291Z,67.35
2019-04-26T11:34:05.048Z,67.83
2019-04-26T11:39:05.423Z,68.78
2019-04-26T11:44:11.484Z,66.24
2019-04-26T11:49:16.778Z,67.02
2019-04-26T11:54:22.217Z,67.88
2019-04-26T11:59:30.684Z,66.97
2019-04-26T12:04:55.077Z,60.38
2019-04-26T12:10:05.831Z,59.98
2019-04-26T12:15:10.261Z,57.54
2019-04-26T12:20:15.620Z,54.13
2019-04-26T12:25:21.006Z,55.90
2019-04-26T12:30:26.945Z,56.29
2019-04-26T12:35:32.161Z,55.71
2019-04-26T12:40:37.510Z,54.28
2019-04-26T12:45:56.724Z,54.20
2019-04-26T12:51:02.401Z,55.17
2019-04-26T12:56:07.858Z,56.85
2019-04-26T13:01:13.989Z,59.80
2019-04-26T13:06:19.277Z,60.46
2019-04-26T13:11:48.923Z,60.93
2019-04-26T13:17:02.262Z,63.41
2019-04-26T13:22:08.541Z,63.81
2019-04-26T13:27:14.956Z,63.20
2019-04-26T13:32:20.300Z,64.74
2019-04-26T13:37:32.167Z,64.68
2019-04-26T13:42:37.531Z,64.93
2019-04-26T13:48:00.487Z,63.65
2019-04-26T13:53:05.790Z,63.68
2019-04-26T13:58:15.482Z,63.09
2019-04-26T14:03:19.387Z,62.95
2019-04-26T14:08:24.907Z,59.65
2019-04-26T14:13:34.644Z,58.48
2019-04-26T14:18:40.747Z,53.38
2019-04-26T14:24:05.819Z,52.60
2019-04-26T14:29:13.381Z,45.38
2019-04-26T14:34:19.248Z,40.13
2019-04-26T14:39:38.266Z,38.31
2019-04-26T14:44:32.868Z,38.16
2019-04-26T14:49:39.147Z,37.39
2019-04-26T14:54:45.951Z,35.30
2019-04-26T14:59:57.492Z,34.57
2019-04-26T15:05:24.809Z,35.69
2019-04-26T15:10:45.812Z,34.79
2019-04-26T15:15:45.963Z,33.30
2019-04-26T15:20:53.101Z,33.04
2019-04-26T15:25:58.604Z,34.55
2019-04-26T15:31:04.417Z,34.96
2019-04-26T15:36:11.220Z,37.58
2019-04-26T15:41:28.197Z,40.55
2019-04-26T15:47:03.955Z,42.15
2019-04-26T15:52:08.312Z,42.57
2019-04-26T15:57:13.810Z,42.34
2019-04-26T16:02:23.073Z,45.09
2019-04-26T16:07:28.836Z,46.45
2019-04-26T16:12:34.491Z,46.90
2019-04-26T16:17:40.360Z,48.76
2019-04-26T16:22:49.002Z,48.94
2019-04-26T16:28:12.833Z,47.41
2019-04-26T16:33:28.499Z,49.88
2019-04-26T16:38:37.761Z,49.50
2019-04-26T16:43:53.202Z,52.20
2019-04-26T16:48:56.745Z,52.25
2019-04-26T16:54:08.776Z,52.90
2019-04-26T16:59:14.333Z,53.92
2019-04-26T17:04:19.938Z,54.14
2019-04-26T17:09:23.601Z,53.94
2019-04-26T17:14:29.090Z,55.07
2019-04-26T17:19:37.478Z,56.00
2019-04-26T17:25:12.705Z,57.49
2019-04-26T17:30:22.108Z,57.10
2019-04-26T17:35:27.365Z,58.57
2019-04-26T17:40:36.664Z,59.08
2019-04-26T17:45:42.499Z,59.16
2019-04-26T17:50:47.234Z,60.08
2019-04-26T17:55:54.789Z,60.20
2019-04-26T18:01:01.050Z,60.18
2019-04-26T18:06:09.668Z,60.83
2019-04-26T18:11:19.577Z,61.80
2019-04-26T18:16:22.386Z,62.26
2019-04-26T18:21:45.308Z,62.72
2019-04-26T18:26:54.023Z,63.22
2019-04-26T18:32:03.599Z,63.17
2019-04-26T18:37:07.445Z,63.49
2019-04-26T18:42:14.349Z,63.11
2019-04-26T18:47:28.357Z,65.31
2019-04-26T18:52:37.315Z,64.07
2019-04-26T18:57:43.108Z,65.28
2019-04-26T19:02:52.370Z,66.53
2019-04-26T19:07:55.508Z,66.82
2019-04-26T19:13:07.390Z,66.63
2019-04-26T19:18:17.960Z,67.20
2019-04-26T19:23:28.960Z,68.75
2019-04-26T19:28:30.374Z,66.30
2019-04-26T19:33:36.132Z,66.10
2019-04-26T19:38:45.244Z,66.12
2019-04-26T19:43:48.908Z,68.33
2019-04-26T19:49:25.751Z,69.78
2019-04-26T19:54:39.392Z,70.24
2019-04-26T19:59:44.799Z,69.29
2019-04-26T20:04:51.866Z,68.54
2019-04-26T20:10:02.598Z,68.42
2019-04-26T20:15:04.963Z,67.72
2019-04-26T20:20:19.419Z,68.48
2019-04-26T20:25:18.723Z,69.60
2019-04-26T20:30:52.472Z,70.05
2019-04-26T20:36:01.895Z,70.70
2019-04-26T20:41:05.211Z,71.58
2019-04-26T20:46:15.185Z,72.17
2019-04-26T20:51:18.355Z,72.80
2019-04-26T20:56:23.821Z,72.67
2019-04-26T21:01:29.872Z,73.11
2019-04-26T21:06:36.907Z,73.66
2019-04-26T21:11:43.049Z,75.83
2019-04-26T21:16:50.513Z,75.18
2019-04-26T21:21:56.298Z,75.84
2019-04-26T21:27:17.744Z,75.83
2019-04-26T21:32:40.696Z,76.20
2019-04-26T21:37:54.011Z,76.05
2019-04-26T21:43:03.117Z,75.61
2019-04-26T21:48:09.158Z,77.48
2019-04-26T21:53:14.417Z,77.60
2019-04-26T21:58:20.012Z,77.62
2019-04-26T22:03:25.413Z,77.17
2019-04-26T22:08:34.737Z,78.00
2019-04-26T22:13:51.236Z,77.86
2019-04-26T22:19:14.671Z,77.77
2019-04-26T22:24:28.749Z,78.35
2019-04-26T22:29:34.827Z,76.62
2019-04-26T22:34:41.323Z,76.68
2019-04-26T22:39:47.822Z,76.87
2019-04-26T22:45:03.340Z,76.67
2019-04-26T22:50:09.257Z,76.70
2019-04-26T22:55:15.848Z,76.78
2019-04-26T23:00:27.871Z,76.96
2019-04-26T23:05:30.737Z,77.12
2019-04-26T23:10:43.951Z,77.50
2019-04-26T23:16:15.097Z,78.16
2019-04-26T23:21:25.074Z,77.47
2019-04-26T23:26:30.448Z,78.89
2019-04-26T23:31:37.458Z,78.61
2019-04-26T23:36:43.704Z,79.55
2019-04-26T23:41:49.367Z,79.66
2019-04-26T23:47:01.028Z,78.57
2019-04-26T23:52:03.364Z,78.80
2019-04-26T23:57:09.646Z,79.63
